Terminal Aerodrome Forecast
Issued by NWS

Home | Current Version | Previous Version | Text Only | Print | Product List | Glossary On
Versions: 1 2 3 4 5 6 7 8 9 10 11 12 13 14 15 16 17 18 19 20 21 22 23 24 25 26 27 28 29 30 31 32 33 34 35 36
000
FTUS46 KEKA 190523
TAFCEC
TAF
KCEC 190523Z 1906/2006 16025G35KT 5SM RA BR BKN025 OVC030
      WS020/19055KT
     FM190700 17020G30KT 2SM +RA BR BKN012 OVC025 WS020/19052KT
     FM191100 19010KT 3SM RA OVC020 WS020/19040KT
     FM192100 19006KT 2SM RA OVC015=

USA.gov is the U.S. government's official web portal to all federal, state and local government web resources and services.